Time;durP1;ratioP1;P1;durP2;ratioP2;P2;SDS_P1;SDS_P2;PMS_P1;PMS_P2;Temp;Humidity;BMP_temperature;BMP_pressure;BME280_temperature;BME280_humidity;BME280_pressure;Samples;Min_cycle;Max_cycle;Signal;HPM_P1;HPM_P2
2022/02/03 00:02:32;;;;;;;50.05;19.92;;;8.30;99.90;;;;;;4995598;28;20038;-54
2022/02/03 00:05:09;;;;;;;48.63;18.30;;;8.20;99.90;;;;;;4993418;28;20414;-52
2022/02/03 00:08:23;;;;;;;49.90;19.02;;;8.30;99.90;;;;;;4993416;28;20042;-52
2022/02/03 00:24:40;;;;;;;40.88;18.35;;;8.40;99.90;;;;;;4995194;28;20069;-53
2022/02/03 00:27:11;;;;;;;60.85;20.30;;;8.40;99.90;;;;;;4992529;28;20057;-52
2022/02/03 00:29:59;;;;;;;45.20;19.27;;;8.40;99.90;;;;;;4993990;28;20072;-55
2022/02/03 00:32:46;;;;;;;50.58;19.83;;;8.40;99.90;;;;;;4994884;28;20050;-53
2022/02/03 00:49:14;;;;;;;50.80;20.70;;;8.40;99.90;;;;;;4992197;28;20092;-53
2022/02/03 00:51:31;;;;;;;52.45;21.73;;;8.40;99.90;;;;;;4993590;28;20063;-55
2022/02/03 00:53:58;;;;;;;56.38;22.15;;;8.40;99.90;;;;;;4994232;28;20045;-54
2022/02/03 00:56:40;;;;;;;59.05;23.67;;;8.40;99.90;;;;;;4993077;28;20057;-53
2022/02/03 00:59:19;;;;;;;57.00;23.23;;;8.40;99.90;;;;;;4993912;28;20398;-53
2022/02/03 01:01:50;;;;;;;55.55;22.60;;;8.40;99.90;;;;;;4994265;28;20042;-53
2022/02/03 01:04:16;;;;;;;59.08;24.88;;;8.40;99.90;;;;;;4993207;28;20070;-52
2022/02/03 01:06:52;;;;;;;61.60;25.08;;;8.50;99.90;;;;;;4994219;28;20042;-54
2022/02/03 01:09:21;;;;;;;65.28;24.70;;;8.50;99.90;;;;;;4981820;28;20042;-52
2022/02/03 01:11:51;;;;;;;70.50;26.38;;;8.50;99.90;;;;;;4991552;28;20034;-52
2022/02/03 01:14:26;;;;;;;66.18;27.38;;;8.50;99.90;;;;;;4995224;28;20038;-54
2022/02/03 01:17:26;;;;;;;65.03;26.63;;;8.50;99.90;;;;;;4998103;28;20041;-52
2022/02/03 01:34:10;;;;;;;58.67;26.23;;;8.50;99.90;;;;;;4993479;28;20061;-52
2022/02/03 01:45:06;;;;;;;60.22;27.63;;;8.50;99.90;;;;;;4993314;28;20058;-53
2022/02/03 01:52:47;;;;;;;61.38;27.83;;;8.50;99.90;;;;;;4992774;28;20080;-54
2022/02/03 01:55:26;;;;;;;61.55;29.75;;;8.60;99.90;;;;;;4993040;28;20122;-53
2022/02/03 01:58:13;;;;;;;64.13;28.95;;;8.50;99.90;;;;;;4992299;28;20406;-52
2022/02/03 02:00:44;;;;;;;61.92;28.95;;;8.60;99.90;;;;;;4991698;28;20050;-52
2022/02/03 02:03:10;;;;;;;62.15;28.77;;;8.50;99.90;;;;;;4993366;28;20088;-54
2022/02/03 02:06:01;;;;;;;61.63;28.77;;;8.60;99.90;;;;;;4992565;28;20133;-55
2022/02/03 02:08:27;;;;;;;60.30;27.85;;;8.50;99.90;;;;;;4993194;28;20058;-53
2022/02/03 02:11:28;;;;;;;64.43;28.73;;;8.60;99.90;;;;;;4992180;28;20042;-53
2022/02/03 02:39:29;;;;;;;61.35;29.63;;;8.50;99.90;;;;;;4978813;28;20038;-55
2022/02/03 02:44:51;;;;;;;58.55;29.38;;;8.50;99.90;;;;;;4991976;28;20043;-55
2022/02/03 02:47:53;;;;;;;58.45;28.48;;;8.50;99.90;;;;;;4992405;28;20046;-56
2022/02/03 02:50:32;;;;;;;64.97;28.17;;;8.60;99.90;;;;;;4991819;28;20054;-56
2022/02/03 02:53:29;;;;;;;62.92;29.48;;;8.60;99.90;;;;;;4990930;28;20073;-55
2022/02/03 03:34:13;;;;;;;63.78;32.90;;;8.50;99.90;;;;;;4989058;28;20055;-55
2022/02/03 03:36:42;;;;;;;64.15;33.35;;;8.50;99.90;;;;;;4972538;28;20042;-56
2022/02/03 03:39:12;;;;;;;62.05;34.05;;;8.40;99.90;;;;;;4972644;28;20047;-56
2022/02/03 03:41:43;;;;;;;67.07;34.17;;;8.40;99.90;;;;;;4972531;28;20039;-55
2022/02/03 03:44:14;;;;;;;66.68;34.65;;;8.40;99.90;;;;;;4977590;28;20034;-55
2022/02/03 03:46:40;;;;;;;69.88;33.53;;;8.40;99.90;;;;;;4991563;28;20039;-53
2022/02/03 03:49:38;;;;;;;61.42;32.33;;;8.40;99.90;;;;;;4991983;28;20139;-56
2022/02/03 03:52:09;;;;;;;63.22;32.78;;;8.40;99.90;;;;;;4991945;28;20109;-55
2022/02/03 03:54:45;;;;;;;66.90;32.90;;;8.40;99.90;;;;;;4991756;28;20038;-55
2022/02/03 03:57:36;;;;;;;67.30;31.15;;;8.30;99.90;;;;;;4990666;28;20118;-56
2022/02/03 04:34:39;;;;;;;65.38;31.73;;;8.30;99.90;;;;;;4994978;28;20061;-56
2022/02/03 04:37:32;;;;;;;69.18;31.65;;;8.30;99.90;;;;;;4994639;28;20053;-55
2022/02/03 04:40:30;;;;;;;80.72;35.03;;;8.30;99.90;;;;;;4994064;28;20553;-55
2022/02/03 04:51:00;;;;;;;80.07;34.60;;;8.30;99.90;;;;;;4994580;28;20053;-55
2022/02/03 04:55:55;;;;;;;75.00;35.40;;;8.40;99.90;;;;;;5026453;22;20069;-51
2022/02/03 04:59:20;;;;;;;80.03;37.10;;;8.40;99.90;;;;;;4997549;28;20121;-51
2022/02/03 05:02:35;;;;;;;76.80;35.50;;;8.40;99.90;;;;;;4988425;28;20394;-48
2022/02/03 05:05:19;;;;;;;81.43;35.35;;;8.40;99.90;;;;;;4994008;28;20038;-51
2022/02/03 05:08:10;;;;;;;80.97;35.67;;;8.40;99.90;;;;;;4955484;29;20093;-51
2022/02/03 05:19:54;;;;;;;76.15;36.40;;;8.40;99.90;;;;;;4992975;28;20039;-50
2022/02/03 05:35:12;;;;;;;80.75;36.08;;;8.30;99.90;;;;;;4959806;28;20078;-51
2022/02/03 06:13:12;;;;;;;74.05;34.08;;;8.40;99.90;;;;;;4992861;28;20053;-56
2022/02/03 06:21:30;;;;;;;63.78;31.27;;;8.40;99.90;;;;;;4973417;28;20517;-55
2022/02/03 06:29:16;;;;;;;54.10;29.92;;;8.30;99.90;;;;;;4960912;28;20526;-55
2022/02/03 06:31:43;;;;;;;56.25;29.42;;;8.30;99.90;;;;;;4973439;28;20050;-55
2022/02/03 06:34:10;;;;;;;54.83;28.77;;;8.30;99.90;;;;;;4973292;28;20035;-55
2022/02/03 06:36:37;;;;;;;55.75;27.95;;;8.30;99.90;;;;;;4973148;28;20558;-55
2022/02/03 06:39:14;;;;;;;53.42;28.55;;;8.30;99.90;;;;;;4964671;28;20516;-55
2022/02/03 06:41:40;;;;;;;48.13;26.23;;;8.30;99.90;;;;;;4953829;28;20416;-55
2022/02/03 06:44:06;;;;;;;51.75;26.95;;;8.30;99.90;;;;;;4952285;28;20082;-55
2022/02/03 06:46:32;;;;;;;49.85;25.20;;;8.30;99.90;;;;;;4958665;28;20066;-55
2022/02/03 06:49:06;;;;;;;44.00;24.60;;;8.30;99.90;;;;;;4972434;28;20396;-55
2022/02/03 06:51:35;;;;;;;46.80;24.98;;;8.30;99.90;;;;;;4971596;28;20122;-55
2022/02/03 06:54:06;;;;;;;43.42;23.02;;;8.30;99.90;;;;;;4971613;28;20057;-52
2022/02/03 06:56:40;;;;;;;45.88;23.23;;;8.20;99.90;;;;;;4971775;28;20043;-55
2022/02/03 06:59:11;;;;;;;45.72;24.05;;;8.20;99.90;;;;;;4962759;28;20460;-54
2022/02/03 07:01:41;;;;;;;45.72;22.83;;;8.20;99.90;;;;;;4964728;28;20113;-55
2022/02/03 07:04:17;;;;;;;47.13;22.73;;;8.20;99.90;;;;;;4969795;28;20042;-54
2022/02/03 07:06:42;;;;;;;36.55;21.10;;;8.20;99.90;;;;;;4970632;28;20038;-56
2022/02/03 07:09:09;;;;;;;41.53;21.65;;;8.20;99.90;;;;;;4965074;28;20038;-55
2022/02/03 07:11:37;;;;;;;39.78;20.52;;;8.20;99.90;;;;;;4968610;28;20406;-53
2022/02/03 07:14:05;;;;;;;37.47;20.17;;;8.20;99.90;;;;;;4972373;28;20104;-54
2022/02/03 07:16:33;;;;;;;35.47;20.40;;;8.10;99.90;;;;;;4964312;28;20047;-55
2022/02/03 07:18:59;;;;;;;34.30;18.98;;;8.20;99.90;;;;;;4972222;28;20057;-52
2022/02/03 07:21:25;;;;;;;33.53;19.08;;;8.10;99.90;;;;;;4964121;28;20411;-56
2022/02/03 07:23:50;;;;;;;36.88;19.60;;;8.10;99.90;;;;;;4949364;28;20483;-55
2022/02/03 07:26:16;;;;;;;37.30;18.85;;;8.10;99.90;;;;;;4949382;28;20047;-54
2022/02/03 07:28:41;;;;;;;38.22;18.23;;;8.10;99.90;;;;;;4953378;28;20044;-55
2022/02/03 07:31:07;;;;;;;36.60;18.08;;;8.10;99.90;;;;;;4963242;28;20039;-55
2022/02/03 07:33:34;;;;;;;26.67;16.52;;;8.10;99.90;;;;;;4955131;28;20119;-55
2022/02/03 07:35:59;;;;;;;32.40;17.33;;;8.10;99.90;;;;;;4969356;28;20047;-55
2022/02/03 07:38:25;;;;;;;31.83;16.70;;;8.10;99.90;;;;;;4966613;28;20398;-55
2022/02/03 07:40:51;;;;;;;27.77;16.05;;;8.10;99.90;;;;;;4967149;28;20045;-55
2022/02/03 07:43:17;;;;;;;30.02;15.93;;;8.10;99.90;;;;;;4971964;28;20085;-54
2022/02/03 07:45:42;;;;;;;27.95;15.77;;;8.10;99.90;;;;;;4972203;28;20134;-55
2022/02/03 07:48:08;;;;;;;28.52;15.70;;;8.10;99.90;;;;;;4972475;28;20046;-53
2022/02/03 07:50:34;;;;;;;32.72;16.17;;;8.10;99.90;;;;;;4968319;28;20090;-56
2022/02/03 07:52:59;;;;;;;32.63;14.93;;;8.10;99.90;;;;;;4969771;28;20042;-56
2022/02/03 07:55:25;;;;;;;31.63;15.10;;;8.10;99.90;;;;;;4971398;28;20066;-56
2022/02/03 07:57:53;;;;;;;28.40;14.32;;;8.10;99.90;;;;;;4969674;28;20030;-55
2022/02/03 08:00:22;;;;;;;25.20;13.10;;;8.20;99.90;;;;;;4972533;28;20070;-55
2022/02/03 08:02:48;;;;;;;26.40;13.77;;;8.20;99.90;;;;;;4972579;28;20057;-56
2022/02/03 08:05:17;;;;;;;26.85;13.32;;;8.10;99.90;;;;;;4974701;28;20046;-55
2022/02/03 08:08:05;;;;;;;27.25;13.25;;;8.10;99.90;;;;;;4977431;28;20042;-55
2022/02/03 08:13:02;;;;;;;31.45;12.60;;;8.10;99.90;;;;;;4975412;28;20097;-55
2022/02/03 08:15:30;;;;;;;32.67;12.57;;;8.10;99.90;;;;;;4975663;28;20067;-56
2022/02/03 08:18:02;;;;;;;24.83;12.45;;;8.10;99.90;;;;;;4974930;28;20503;-56
2022/02/03 08:20:28;;;;;;;24.58;12.52;;;8.10;99.90;;;;;;4975395;28;20452;-55
2022/02/03 08:23:12;;;;;;;25.27;12.93;;;8.10;99.90;;;;;;4974295;28;20078;-54
2022/02/03 08:25:44;;;;;;;24.40;11.45;;;8.10;99.90;;;;;;4970693;28;20462;-56
2022/02/03 08:28:35;;;;;;;20.88;11.88;;;8.10;99.90;;;;;;4958139;28;20649;-55
2022/02/03 08:31:04;;;;;;;23.13;11.95;;;8.10;99.90;;;;;;4983863;28;20038;-56
2022/02/03 08:33:30;;;;;;;24.27;12.13;;;8.10;99.90;;;;;;4994868;28;20049;-54
2022/02/03 08:35:58;;;;;;;25.23;12.98;;;8.10;99.90;;;;;;4995123;28;20050;-56
2022/02/03 08:39:09;;;;;;;24.48;12.32;;;8.10;99.90;;;;;;4970776;28;20062;-55
2022/02/03 08:41:14;;;;;;;22.15;12.65;;;8.10;99.90;;;;;;4970021;28;20069;-56
2022/02/03 08:43:42;;;;;;;22.65;12.95;;;8.10;99.90;;;;;;4970119;28;20049;-56
2022/02/03 08:46:10;;;;;;;24.05;12.38;;;8.10;99.90;;;;;;4965248;28;20075;-56
2022/02/03 08:48:36;;;;;;;23.65;12.70;;;8.10;99.90;;;;;;4968626;28;20097;-55
2022/02/03 08:51:06;;;;;;;26.10;13.27;;;8.00;99.90;;;;;;4972290;28;20476;-55
2022/02/03 08:53:40;;;;;;;23.35;13.05;;;8.10;99.90;;;;;;4962504;28;20038;-55
2022/02/03 08:56:29;;;;;;;28.48;13.23;;;8.10;99.90;;;;;;4958651;28;20487;-55
2022/02/03 08:59:29;;;;;;;20.45;12.57;;;8.10;99.90;;;;;;4963652;28;20125;-54
2022/02/03 09:33:30;;;;;;;24.90;15.55;;;8.10;99.90;;;;;;4967318;28;20415;-51
2022/02/03 09:34:52;;;;;;;30.75;15.23;;;8.00;99.90;;;;;;4970156;28;20094;-54
2022/02/03 09:56:11;;;;;;;21.83;13.85;;;8.00;99.90;;;;;;4972816;28;20419;-55
2022/02/03 09:58:43;;;;;;;24.33;14.20;;;8.00;99.90;;;;;;4972627;28;20047;-53
2022/02/03 10:01:13;;;;;;;26.13;13.77;;;8.00;99.90;;;;;;4972909;28;20052;-54
2022/02/03 10:03:49;;;;;;;28.38;15.63;;;8.00;99.90;;;;;;4973772;28;20043;-53
2022/02/03 10:06:19;;;;;;;27.55;14.18;;;8.00;99.90;;;;;;4972018;28;20042;-55
2022/02/03 10:08:49;;;;;;;25.08;14.20;;;8.00;99.90;;;;;;4973232;28;20399;-52
2022/02/03 10:11:25;;;;;;;26.00;14.30;;;8.00;99.90;;;;;;4972983;28;20065;-52
2022/02/03 10:13:55;;;;;;;25.23;14.02;;;8.00;99.90;;;;;;4964658;28;20047;-55
2022/02/03 10:16:31;;;;;;;26.33;14.70;;;8.00;99.90;;;;;;4965129;28;20495;-52
2022/02/03 10:19:09;;;;;;;29.38;15.55;;;8.10;99.90;;;;;;4987014;28;20062;-52
2022/02/03 10:21:35;;;;;;;26.73;15.40;;;8.10;99.90;;;;;;4972141;28;20431;-53
2022/02/03 10:24:06;;;;;;;22.35;13.65;;;8.10;99.90;;;;;;4973097;28;20105;-53
2022/02/03 10:26:41;;;;;;;22.65;15.57;;;8.10;99.90;;;;;;4972895;28;20045;-52
2022/02/03 10:29:12;;;;;;;24.05;15.40;;;8.10;99.90;;;;;;4972584;28;20565;-52
2022/02/03 10:31:40;;;;;;;25.05;15.30;;;8.20;99.90;;;;;;4961915;28;20046;-52
2022/02/03 10:34:10;;;;;;;25.27;14.90;;;8.10;99.90;;;;;;4967945;28;20043;-53
2022/02/03 10:42:30;;;;;;;26.90;14.93;;;8.20;99.90;;;;;;4972927;28;20078;-52
2022/02/03 10:45:19;;;;;;;31.60;16.27;;;7.90;99.90;;;;;;4962103;28;20562;-55
2022/02/03 10:48:08;;;;;;;30.20;15.82;;;8.10;99.90;;;;;;4972858;28;20659;-54
2022/02/03 10:56:19;;;;;;;27.77;14.13;;;8.10;99.90;;;;;;4972143;28;20043;-55
2022/02/03 11:01:39;;;;;;;28.80;14.95;;;8.00;99.90;;;;;;4971846;28;20081;-55
2022/02/03 11:07:01;;;;;;;28.30;14.90;;;7.90;99.90;;;;;;4971216;28;20118;-51
2022/02/03 11:09:48;;;;;;;30.50;14.27;;;7.90;99.90;;;;;;4965821;28;20098;-52
2022/02/03 11:12:21;;;;;;;26.48;13.63;;;7.90;99.90;;;;;;4972723;28;20051;-49
2022/02/03 11:14:47;;;;;;;23.23;13.35;;;7.80;99.90;;;;;;4971880;28;20042;-51
2022/02/03 11:17:16;;;;;;;20.88;13.30;;;7.80;99.90;;;;;;4971992;28;20042;-55
2022/02/03 11:19:48;;;;;;;21.15;13.05;;;7.80;99.90;;;;;;4972699;28;20081;-52
2022/02/03 11:22:21;;;;;;;20.83;12.75;;;7.80;99.90;;;;;;4971689;28;20126;-51
2022/02/03 11:24:55;;;;;;;21.58;12.65;;;7.80;99.90;;;;;;4969399;28;20046;-52
2022/02/03 11:27:32;;;;;;;18.58;11.90;;;7.80;99.90;;;;;;4971797;28;20049;-50
2022/02/03 11:34:06;;;;;;;23.77;13.20;;;7.70;99.90;;;;;;4976341;28;20050;-52
2022/02/03 11:41:26;;;;;;;19.98;12.45;;;7.70;99.90;;;;;;4969109;28;20526;-51
2022/02/03 11:49:09;;;;;;;19.15;12.43;;;7.60;99.90;;;;;;4968022;28;20090;-49
2022/02/03 12:00:40;;;;;;;21.05;12.98;;;7.70;99.90;;;;;;4971539;28;21728;-51
2022/02/03 12:16:26;;;;;;;22.38;13.65;;;7.60;99.90;;;;;;4961595;28;19919;-48
2022/02/03 12:21:46;;;;;;;22.38;14.30;;;7.60;99.90;;;;;;4965951;28;20337;-48
2022/02/03 12:24:48;;;;;;;25.35;14.32;;;7.60;99.90;;;;;;4964820;28;20116;-52
2022/02/03 12:27:36;;;;;;;23.25;13.30;;;7.70;99.90;;;;;;4961240;28;20074;-52
2022/02/03 12:30:24;;;;;;;22.20;12.93;;;7.70;99.90;;;;;;4959486;28;20043;-52
2022/02/03 12:38:51;;;;;;;21.38;12.57;;;7.80;99.90;;;;;;4957242;28;20046;-52
2022/02/03 12:41:22;;;;;;;21.67;13.13;;;7.80;99.90;;;;;;4961835;28;20070;-55
2022/02/03 12:44:05;;;;;;;23.20;12.98;;;7.70;99.90;;;;;;4959473;28;20093;-53
2022/02/03 12:46:31;;;;;;;17.65;12.10;;;7.80;99.90;;;;;;4956884;28;20039;-55
2022/02/03 12:48:59;;;;;;;18.83;12.30;;;7.80;99.90;;;;;;4970549;28;20042;-56
2022/02/03 12:51:26;;;;;;;16.27;11.10;;;7.80;99.90;;;;;;4961031;28;20118;-54
2022/02/03 12:53:52;;;;;;;19.08;10.90;;;7.80;99.90;;;;;;4963321;28;20513;-55
2022/02/03 12:56:23;;;;;;;18.08;11.38;;;7.80;99.90;;;;;;4966632;28;20046;-56
2022/02/03 12:58:53;;;;;;;17.08;11.10;;;7.80;99.90;;;;;;4967109;28;20384;-55
2022/02/03 13:01:28;;;;;;;17.02;10.40;;;7.80;99.90;;;;;;4973420;28;20825;-53
2022/02/03 13:03:55;;;;;;;18.02;10.88;;;7.80;99.90;;;;;;4962116;28;20546;-55
2022/02/03 13:06:23;;;;;;;17.05;10.27;;;7.80;99.90;;;;;;4966129;28;20035;-53
2022/02/03 13:08:55;;;;;;;17.77;10.25;;;7.80;99.90;;;;;;4966516;28;20097;-55
2022/02/03 13:11:31;;;;;;;14.67;10.17;;;7.80;99.90;;;;;;4963679;28;20031;-54
2022/02/03 13:14:09;;;;;;;16.25;10.35;;;7.80;99.90;;;;;;4964716;28;20085;-55
2022/02/03 13:16:36;;;;;;;15.40;9.80;;;7.80;99.90;;;;;;4964324;28;20373;-54
2022/02/03 13:19:13;;;;;;;16.13;9.93;;;7.80;99.90;;;;;;4967979;28;20032;-53
2022/02/03 13:26:56;;;;;;;14.63;9.68;;;7.80;99.90;;;;;;4972062;28;20054;-56
2022/02/03 13:29:48;;;;;;;15.77;9.43;;;7.90;99.90;;;;;;4972305;28;20526;-56
2022/02/03 13:32:20;;;;;;;14.73;9.13;;;7.80;99.90;;;;;;4977163;28;20046;-55
2022/02/03 13:35:02;;;;;;;;;;;7.80;99.90;;;;;;4987308;28;20039;-55
2022/02/03 13:37:40;;;;;;;14.30;8.98;;;7.80;99.90;;;;;;4963591;28;19930;-55
2022/02/03 13:40:10;;;;;;;16.10;8.98;;;7.80;99.90;;;;;;4974503;28;20042;-56
2022/02/03 13:42:37;;;;;;;14.75;9.88;;;7.80;99.90;;;;;;4972986;28;20047;-56
2022/02/03 13:45:07;;;;;;;16.63;9.95;;;7.80;99.90;;;;;;4977615;28;20043;-54
2022/02/03 13:47:37;;;;;;;16.75;9.77;;;7.80;99.90;;;;;;4972946;28;20035;-56
2022/02/03 13:50:26;;;;;;;14.45;9.82;;;7.80;99.90;;;;;;4974262;28;20420;-55
2022/02/03 13:53:06;;;;;;;13.85;9.10;;;7.90;99.90;;;;;;4973058;28;20511;-56
2022/02/03 14:16:18;;;;;;;19.00;10.60;;;7.80;99.90;;;;;;4952716;29;20086;-50
2022/02/03 14:21:39;;;;;;;18.33;11.95;;;7.70;99.90;;;;;;4954448;28;20106;-51
2022/02/03 14:29:24;;;;;;;21.27;13.40;;;7.80;99.90;;;;;;4993162;28;20042;-54
2022/02/03 14:32:00;;;;;;;23.25;13.55;;;7.80;99.90;;;;;;4991506;28;20475;-51
2022/02/03 14:34:32;;;;;;;24.75;13.88;;;7.80;99.90;;;;;;4991799;28;20042;-50
2022/02/03 14:37:04;;;;;;;24.88;14.63;;;7.80;99.90;;;;;;4992400;28;20203;-51
2022/02/03 14:39:48;;;;;;;27.13;15.70;;;7.80;99.90;;;;;;4992696;28;20038;-54
2022/02/03 14:42:14;;;;;;;24.42;14.45;;;7.80;99.90;;;;;;4992749;28;20042;-50
2022/02/03 14:44:40;;;;;;;26.60;14.70;;;7.80;99.90;;;;;;4991281;28;20053;-50
2022/02/03 14:47:07;;;;;;;23.45;14.73;;;7.80;99.90;;;;;;4992402;28;20093;-53
2022/02/03 14:49:34;;;;;;;25.35;15.02;;;7.70;99.90;;;;;;4991222;28;20509;-50
2022/02/03 14:52:26;;;;;;;24.40;14.93;;;7.70;99.90;;;;;;4992650;28;20042;-53
2022/02/03 15:00:22;;;;;;;25.35;14.52;;;7.70;99.90;;;;;;4991208;28;20045;-51
2022/02/03 15:02:49;;;;;;;26.52;14.27;;;7.70;99.90;;;;;;4991341;28;20613;-51
2022/02/03 15:05:23;;;;;;;23.40;13.55;;;7.70;99.90;;;;;;4990840;28;20065;-51
2022/02/03 15:07:55;;;;;;;25.52;15.32;;;7.70;99.90;;;;;;4992277;28;20104;-54
2022/02/03 15:13:12;;;;;;;22.30;14.20;;;7.70;99.90;;;;;;4971524;28;20523;-53
2022/02/03 15:15:39;;;;;;;22.92;13.50;;;7.70;99.90;;;;;;4972756;28;20433;-54
2022/02/03 15:18:04;;;;;;;22.30;13.32;;;7.70;99.90;;;;;;4972825;28;20047;-53
2022/02/03 15:20:31;;;;;;;23.08;12.88;;;7.70;99.90;;;;;;4973523;28;20045;-54
2022/02/03 15:22:57;;;;;;;24.10;13.50;;;7.60;99.90;;;;;;4972646;28;20487;-50
2022/02/03 15:25:23;;;;;;;23.75;13.00;;;7.60;99.90;;;;;;4972674;28;20050;-53
2022/02/03 15:27:48;;;;;;;22.83;12.40;;;7.60;99.90;;;;;;4972984;28;20039;-53
2022/02/03 15:30:15;;;;;;;20.25;10.90;;;7.60;99.90;;;;;;4973655;28;20042;-53
2022/02/03 15:32:42;;;;;;;23.70;11.25;;;7.60;99.90;;;;;;4992281;28;20101;-53
2022/02/03 15:35:14;;;;;;;20.23;11.35;;;7.60;99.90;;;;;;4991730;28;20038;-54
2022/02/03 15:37:44;;;;;;;;;;;7.60;99.90;;;;;;4992479;28;20042;-53
2022/02/03 15:40:16;;;;;;;23.70;12.15;;;7.60;99.90;;;;;;4990807;28;19918;-54
2022/02/03 15:42:50;;;;;;;23.02;12.27;;;7.50;99.90;;;;;;4972648;28;20080;-51
2022/02/03 15:45:16;;;;;;;19.90;11.68;;;7.50;99.90;;;;;;4971311;28;20047;-54
2022/02/03 15:47:48;;;;;;;16.88;11.57;;;7.50;99.90;;;;;;4972354;28;20031;-57
2022/02/03 16:01:23;;;;;;;20.25;10.52;;;7.50;99.90;;;;;;4973749;28;20106;-53
2022/02/03 16:17:21;;;;;;;17.00;10.07;;;7.50;99.90;;;;;;4972432;28;20043;-53
2022/02/03 16:25:02;;;;;;;17.75;10.35;;;7.40;99.90;;;;;;4987821;28;20042;-53
2022/02/03 16:41:09;;;;;;;17.75;11.18;;;7.50;99.90;;;;;;4995053;28;20045;-51
2022/02/03 16:50:20;;;;;;;17.50;10.77;;;7.40;99.90;;;;;;4993519;28;20514;-53
2022/02/03 16:54:20;;;;;;;20.00;11.80;;;7.40;99.90;;;;;;4985329;28;20047;-53
2022/02/03 16:56:49;;;;;;;23.40;14.60;;;7.40;99.90;;;;;;4985620;28;20383;-51
2022/02/03 16:59:14;;;;;;;21.40;12.73;;;7.40;99.90;;;;;;4994632;28;20038;-53
2022/02/03 17:01:40;;;;;;;20.58;12.77;;;7.40;99.90;;;;;;4994996;28;20601;-50
2022/02/03 17:04:05;;;;;;;23.98;14.32;;;7.40;99.90;;;;;;4993250;28;20053;-51
2022/02/03 17:06:31;;;;;;;23.08;13.00;;;7.40;99.90;;;;;;4994257;28;20049;-51
2022/02/03 17:08:57;;;;;;;21.23;13.60;;;7.40;99.90;;;;;;4994138;28;20046;-51
2022/02/03 17:11:22;;;;;;;22.30;13.95;;;7.40;99.90;;;;;;4994663;28;20049;-51
2022/02/03 17:13:48;;;;;;;20.67;13.80;;;7.40;99.90;;;;;;4993168;28;20070;-53
2022/02/03 17:16:20;;;;;;;25.30;14.98;;;7.30;99.90;;;;;;4976610;28;20121;-51
2022/02/03 17:18:47;;;;;;;26.45;14.85;;;7.40;99.90;;;;;;4994267;28;20038;-51
2022/02/03 17:21:12;;;;;;;24.13;14.57;;;7.40;99.90;;;;;;4993111;28;20046;-53
2022/02/03 17:23:38;;;;;;;23.73;14.15;;;7.40;99.90;;;;;;4992831;28;20157;-54
2022/02/03 17:28:37;;;;;;;24.17;14.32;;;7.40;99.90;;;;;;4993848;28;20046;-52
2022/02/03 17:31:15;;;;;;;22.45;15.07;;;7.40;99.90;;;;;;4994139;28;20046;-53
2022/02/03 18:03:53;;;;;;;32.17;18.75;;;7.30;99.90;;;;;;4992496;28;20046;-51
2022/02/03 18:09:00;;;;;;;40.60;20.67;;;7.30;99.90;;;;;;4992431;28;20498;-52
2022/02/03 18:30:15;;;;;;;36.05;21.10;;;7.30;99.90;;;;;;5012394;28;20056;-56
2022/02/03 18:32:53;;;;;;;38.35;22.02;;;7.30;99.90;;;;;;5013618;28;20112;-56
2022/02/03 18:46:41;;;;;;;38.00;21.90;;;7.30;99.90;;;;;;5012224;28;20057;-56
2022/02/03 18:51:35;;;;;;;39.08;22.05;;;7.30;99.90;;;;;;5012495;28;20060;-56
2022/02/03 18:54:23;;;;;;;40.08;23.27;;;7.30;99.90;;;;;;5012040;28;20046;-55
2022/02/03 18:59:44;;;;;;;38.80;22.30;;;7.30;99.90;;;;;;5012063;28;20545;-56
2022/02/03 19:14:01;;;;;;;42.67;24.08;;;7.40;99.90;;;;;;5006312;28;20100;-55
2022/02/03 19:26:33;;;;;;;47.60;26.25;;;7.40;99.90;;;;;;5008665;28;20057;-56
2022/02/03 20:00:12;;;;;;;42.53;24.30;;;7.50;99.90;;;;;;5014274;28;20050;-57
2022/02/03 20:07:09;;;;;;;41.88;24.52;;;7.50;99.90;;;;;;5014884;28;20046;-56
2022/02/03 20:09:57;;;;;;;44.22;24.52;;;7.50;99.90;;;;;;5015151;28;20058;-56
2022/02/03 20:12:23;;;;;;;42.58;24.00;;;7.50;99.90;;;;;;5013798;28;20505;-56
2022/02/03 20:14:50;;;;;;;45.60;24.73;;;7.50;99.90;;;;;;5014163;28;20037;-56
2022/02/03 20:17:19;;;;;;;50.47;24.98;;;7.50;99.90;;;;;;5013823;28;20038;-56
2022/02/03 20:19:49;;;;;;;43.85;24.55;;;7.50;99.90;;;;;;5015030;28;20045;-56
2022/02/03 20:22:16;;;;;;;45.28;24.77;;;7.50;99.90;;;;;;5014917;28;20053;-56
2022/02/03 20:24:42;;;;;;;42.67;24.63;;;7.50;99.90;;;;;;5012673;28;20050;-56
2022/02/03 20:27:08;;;;;;;46.95;25.48;;;7.50;99.90;;;;;;5014633;28;20104;-56
2022/02/03 20:29:33;;;;;;;45.22;25.10;;;7.60;99.90;;;;;;5014873;28;20068;-56
2022/02/03 20:31:59;;;;;;;38.90;25.15;;;7.50;99.90;;;;;;5014870;28;20244;-56
2022/02/03 20:34:24;;;;;;;44.20;25.50;;;7.50;99.90;;;;;;5014288;28;20068;-56
2022/02/03 20:36:51;;;;;;;46.95;26.10;;;7.50;99.90;;;;;;5014625;28;20042;-56
2022/02/03 20:39:16;;;;;;;45.60;25.50;;;7.50;99.90;;;;;;5014492;28;20096;-56
2022/02/03 20:41:42;;;;;;;48.95;26.73;;;7.50;99.90;;;;;;5014740;28;20437;-56
2022/02/03 20:44:07;;;;;;;44.53;26.42;;;7.50;99.90;;;;;;5014378;28;20046;-56
2022/02/03 20:46:35;;;;;;;44.50;25.42;;;7.60;99.90;;;;;;5014369;28;20084;-56
2022/02/03 20:49:01;;;;;;;47.13;25.92;;;7.50;99.90;;;;;;5010188;28;20048;-56
2022/02/03 20:51:27;;;;;;;46.50;26.00;;;7.50;99.90;;;;;;5002399;28;20447;-56
2022/02/03 20:53:53;;;;;;;40.80;25.08;;;7.50;99.90;;;;;;5003913;28;20038;-55
2022/02/03 20:56:20;;;;;;;46.13;26.38;;;7.50;99.90;;;;;;5003892;28;20486;-56
2022/02/03 20:58:46;;;;;;;40.95;24.75;;;7.50;99.90;;;;;;5004069;28;20046;-56
2022/02/03 21:01:33;;;;;;;44.63;26.08;;;7.50;99.90;;;;;;5002100;28;20041;-56
2022/02/03 21:04:06;;;;;;;49.45;27.40;;;7.40;99.90;;;;;;5003977;28;20038;-55
2022/02/03 21:06:32;;;;;;;40.22;25.25;;;7.50;99.90;;;;;;5007673;28;20045;-56
2022/02/03 21:08:57;;;;;;;42.75;25.10;;;7.50;99.90;;;;;;5005697;28;20133;-54
2022/02/03 21:11:23;;;;;;;46.47;25.13;;;7.50;99.90;;;;;;5003511;28;20041;-56
2022/02/03 21:13:49;;;;;;;46.75;25.52;;;7.50;99.90;;;;;;5003700;28;20045;-56
2022/02/03 21:16:15;;;;;;;41.55;25.65;;;7.50;99.90;;;;;;4998427;28;20038;-56
2022/02/03 21:18:43;;;;;;;42.70;23.45;;;7.50;99.90;;;;;;5002584;28;20034;-56
2022/02/03 21:21:09;;;;;;;46.42;25.45;;;7.40;99.90;;;;;;5004192;28;20041;-54
2022/02/03 21:23:34;;;;;;;40.88;24.65;;;7.50;99.90;;;;;;5007561;28;20033;-56
2022/02/03 21:26:04;;;;;;;44.13;24.63;;;7.40;99.90;;;;;;4998451;28;20413;-56
2022/02/03 21:28:33;;;;;;;43.08;24.50;;;7.50;99.90;;;;;;4999432;28;20042;-54
2022/02/03 21:31:01;;;;;;;45.42;24.63;;;7.40;99.90;;;;;;5003335;28;20045;-53
2022/02/03 21:33:34;;;;;;;43.17;24.50;;;7.40;99.90;;;;;;4999649;28;20065;-52
2022/02/03 21:36:08;;;;;;;42.40;25.75;;;7.40;99.90;;;;;;5001657;28;20335;-51
2022/02/03 21:38:35;;;;;;;40.45;24.05;;;7.40;99.90;;;;;;5000089;28;20034;-52
2022/02/03 21:41:01;;;;;;;41.13;24.33;;;7.50;99.90;;;;;;4999373;28;20046;-51
2022/02/03 21:43:27;;;;;;;39.55;23.23;;;7.50;99.90;;;;;;4997605;28;20113;-51
2022/02/03 21:45:53;;;;;;;39.70;23.88;;;7.50;99.90;;;;;;5001071;28;20045;-51
2022/02/03 21:48:19;;;;;;;42.53;23.67;;;7.40;99.90;;;;;;5000129;28;20034;-53
2022/02/03 21:50:44;;;;;;;38.22;23.10;;;7.40;99.90;;;;;;4999809;28;20048;-51
2022/02/03 21:53:21;;;;;;;38.85;23.00;;;7.50;99.90;;;;;;5000831;28;20072;-52
2022/02/03 21:55:47;;;;;;;42.45;23.45;;;7.40;99.90;;;;;;4995312;28;20104;-52
2022/02/03 21:58:14;;;;;;;41.53;23.20;;;7.40;99.90;;;;;;5021433;28;20049;-51
2022/02/03 22:00:40;;;;;;;38.83;23.88;;;7.40;99.90;;;;;;5011867;28;20088;-52
2022/02/03 22:03:06;;;;;;;38.97;22.33;;;7.40;99.90;;;;;;5010870;28;20050;-52
2022/02/03 22:05:33;;;;;;;38.95;23.27;;;7.40;99.90;;;;;;5011019;28;20033;-51
2022/02/03 22:07:59;;;;;;;39.95;24.13;;;7.40;99.90;;;;;;5007114;28;20100;-55
2022/02/03 22:10:25;;;;;;;38.25;22.77;;;7.40;99.90;;;;;;5011981;28;20468;-51
2022/02/03 22:12:51;;;;;;;41.63;23.63;;;7.40;99.90;;;;;;5004896;28;20042;-51
2022/02/03 22:15:18;;;;;;;39.88;23.98;;;7.40;99.90;;;;;;5010911;28;20034;-51
2022/02/03 22:17:44;;;;;;;38.47;22.45;;;7.40;99.90;;;;;;5012197;28;20038;-52
2022/02/03 22:20:22;;;;;;;37.53;23.58;;;7.40;99.90;;;;;;5012251;28;20432;-56
2022/02/03 22:23:10;;;;;;;41.10;24.50;;;7.40;99.90;;;;;;5012712;28;20069;-51
2022/02/03 22:26:01;;;;;;;42.85;24.15;;;7.40;99.90;;;;;;5011863;28;20038;-55
2022/02/03 22:28:36;;;;;;;39.70;23.48;;;7.40;99.90;;;;;;5012357;28;20129;-52
2022/02/03 22:42:27;;;;;;;38.15;22.23;;;7.40;99.90;;;;;;5011287;28;20037;-56
2022/02/03 22:45:01;;;;;;;44.85;23.95;;;7.50;99.90;;;;;;5011985;28;20125;-56
2022/02/03 22:48:02;;;;;;;39.60;22.10;;;7.40;99.90;;;;;;5012402;28;20046;-56